Time;durP1;ratioP1;P1;durP2;ratioP2;P2;SDS_P1;SDS_P2;PMS_P1;PMS_P2;Temp;Humidity;BMP_temperature;BMP_pressure;BME280_temperature;BME280_humidity;BME280_pressure;Samples;Min_cycle;Max_cycle;Signal;HPM_P1;HPM_P2
2021/12/29 00:00:23;;;;;;;86.07;24.08;;;;;;;6.39;78.23;99273.50;5051177;28;20107;-65
2021/12/29 00:02:50;;;;;;;48.22;20.50;;;;;;;6.27;79.62;99267.22;5051492;28;20103;-65
2021/12/29 00:05:17;;;;;;;110.53;24.98;;;;;;;6.27;79.78;99273.28;5051259;28;20076;-65
2021/12/29 00:07:43;;;;;;;56.38;22.13;;;;;;;6.27;79.88;99272.44;5050558;28;20497;-65
2021/12/29 00:10:12;;;;;;;41.55;18.77;;;;;;;6.15;81.09;99275.72;5051178;28;20130;-65
2021/12/29 00:12:41;;;;;;;38.05;18.40;;;;;;;6.00;80.36;99271.38;5045179;28;20056;-65
2021/12/29 00:15:09;;;;;;;53.65;21.98;;;;;;;5.60;82.37;99273.56;5044652;28;20413;-65
2021/12/29 00:17:35;;;;;;;58.78;21.75;;;;;;;5.68;82.26;99274.00;5050559;28;20450;-65
2021/12/29 00:20:02;;;;;;;218.90;29.58;;;;;;;5.78;81.43;99267.34;5050829;28;20214;-65
2021/12/29 00:22:29;;;;;;;53.10;18.50;;;;;;;5.90;80.43;99276.28;5049941;28;20102;-65
2021/12/29 00:24:55;;;;;;;37.63;17.52;;;;;;;6.10;79.36;99288.16;5050176;28;20485;-65
2021/12/29 00:27:23;;;;;;;33.25;16.33;;;;;;;6.10;78.82;99294.19;5050725;28;20057;-65
2021/12/29 00:29:49;;;;;;;36.85;16.05;;;;;;;6.05;78.11;99296.25;5049523;28;20041;-65
2021/12/29 00:32:16;;;;;;;38.67;17.73;;;;;;;5.59;81.36;99308.28;5050697;28;20563;-65
2021/12/29 00:34:42;;;;;;;43.47;17.98;;;;;;;5.36;82.35;99311.25;5050750;28;20045;-65
2021/12/29 00:37:08;;;;;;;43.97;17.63;;;;;;;5.32;82.74;99309.78;5055129;28;20041;-65
2021/12/29 00:39:35;;;;;;;34.78;16.73;;;;;;;5.61;81.57;99316.00;5051353;28;20110;-65
2021/12/29 00:42:02;;;;;;;51.15;17.98;;;;;;;5.77;81.09;99322.88;5051179;28;20117;-65
2021/12/29 00:44:31;;;;;;;36.05;16.85;;;;;;;5.80;80.79;99322.72;5049854;28;20499;-65
2021/12/29 00:46:58;;;;;;;29.88;14.57;;;;;;;5.76;80.53;99323.00;5050121;28;20469;-65
2021/12/29 00:49:30;;;;;;;36.05;14.43;;;;;;;5.80;79.66;99330.53;5047343;28;20099;-65
2021/12/29 00:51:57;;;;;;;34.28;16.40;;;;;;;5.91;79.15;99324.78;5049473;28;20405;-65
2021/12/29 00:54:23;;;;;;;30.98;13.88;;;;;;;5.81;78.74;99332.19;5050321;28;20142;-65
2021/12/29 00:56:50;;;;;;;30.20;13.68;;;;;;;5.42;80.36;99328.31;5049308;28;20041;-65
2021/12/29 00:59:16;;;;;;;33.75;13.25;;;;;;;5.30;79.82;99335.00;5050208;28;20098;-65
2021/12/29 01:01:44;;;;;;;37.38;14.18;;;;;;;5.52;79.26;99353.72;5049424;28;20190;-65
2021/12/29 01:04:10;;;;;;;29.85;13.55;;;;;;;5.61;79.41;99360.22;5049913;28;20507;-65
2021/12/29 01:06:36;;;;;;;42.17;15.65;;;;;;;5.60;80.29;99371.53;5049922;28;20064;-65
2021/12/29 01:09:03;;;;;;;41.15;16.10;;;;;;;5.66;80.03;99372.03;5043276;28;20099;-65
2021/12/29 01:11:29;;;;;;;29.45;14.32;;;;;;;5.66;78.91;99376.41;5049763;28;20041;-65
2021/12/29 01:13:55;;;;;;;37.97;15.93;;;;;;;5.60;79.50;99382.78;5049807;28;20053;-65
2021/12/29 01:16:37;;;;;;;36.10;15.90;;;;;;;5.66;79.66;99389.41;5050040;28;20061;-65
2021/12/29 01:19:08;;;;;;;38.58;15.43;;;;;;;5.67;80.04;99396.28;5049074;28;20071;-65
2021/12/29 01:21:36;;;;;;;45.72;17.00;;;;;;;5.66;79.84;99398.03;5048294;28;20045;-67
2021/12/29 01:24:05;;;;;;;47.78;18.20;;;;;;;5.62;80.33;99406.06;5049973;28;20041;-66
2021/12/29 01:26:31;;;;;;;40.97;17.85;;;;;;;5.57;80.92;99413.31;5049196;28;20579;-66
2021/12/29 01:28:58;;;;;;;47.22;18.48;;;;;;;5.52;81.15;99405.72;5049360;28;20041;-66
2021/12/29 01:31:24;;;;;;;45.38;18.48;;;;;;;5.68;80.31;99410.97;5048825;28;20217;-66
2021/12/29 01:33:51;;;;;;;42.88;17.30;;;;;;;5.58;80.27;99415.81;5049258;28;20041;-66
2021/12/29 01:36:18;;;;;;;46.83;17.30;;;;;;;5.61;80.10;99422.63;5048901;28;20458;-66
2021/12/29 01:38:45;;;;;;;40.95;17.02;;;;;;;5.78;79.28;99423.41;5044143;28;20068;-66
2021/12/29 01:41:11;;;;;;;43.63;16.60;;;;;;;5.79;78.32;99422.50;5048261;28;20122;-66
2021/12/29 01:43:38;;;;;;;44.83;16.92;;;;;;;5.30;79.76;99426.81;5031700;28;20103;-66
2021/12/29 01:46:04;;;;;;;51.97;19.17;;;;;;;5.10;81.44;99433.94;5049150;28;20121;-66
2021/12/29 01:48:30;;;;;;;44.08;16.83;;;;;;;5.01;81.99;99434.38;5046760;28;20127;-66
2021/12/29 01:50:57;;;;;;;33.47;16.05;;;;;;;5.16;82.04;99438.81;5047901;28;20045;-65
2021/12/29 01:53:28;;;;;;;37.00;16.50;;;;;;;5.49;81.22;99447.50;5047945;28;20052;-66
2021/12/29 01:55:55;;;;;;;;;;;;;;;5.43;81.34;99455.63;5049550;28;20060;-65
2021/12/29 01:58:22;;;;;;;46.90;15.05;;;;;;;5.62;80.72;99452.88;5046976;28;19925;-65
2021/12/29 02:00:49;;;;;;;37.47;16.30;;;;;;;5.73;79.90;99458.38;5048537;28;20040;-65
2021/12/29 02:03:16;;;;;;;40.25;15.85;;;;;;;5.21;81.61;99447.22;5045708;28;20103;-65
2021/12/29 02:05:42;;;;;;;48.35;17.05;;;;;;;5.17;82.37;99448.28;5049022;28;20489;-65
2021/12/29 02:08:10;;;;;;;44.25;17.17;;;;;;;5.09;82.88;99450.44;5048613;28;20166;-65
2021/12/29 02:10:43;;;;;;;48.95;17.08;;;;;;;5.25;82.47;99453.91;5048276;28;20049;-66
2021/12/29 02:13:10;;;;;;;34.10;16.15;;;;;;;5.22;82.89;99448.88;5049068;28;20049;-66
2021/12/29 02:15:37;;;;;;;37.28;14.93;;;;;;;5.34;82.57;99454.31;5048254;28;20458;-66
2021/12/29 02:18:11;;;;;;;29.75;14.57;;;;;;;5.40;82.12;99455.75;5049128;28;20075;-66
2021/12/29 02:20:39;;;;;;;38.60;13.98;;;;;;;5.29;82.48;99465.84;5048234;28;20673;-66
2021/12/29 02:23:13;;;;;;;35.97;14.07;;;;;;;5.40;81.63;99468.75;5048404;28;20048;-66
2021/12/29 02:25:48;;;;;;;25.13;13.70;;;;;;;5.38;81.16;99481.00;5048448;28;20060;-66
2021/12/29 02:28:18;;;;;;;26.63;12.82;;;;;;;5.33;80.97;99489.00;5048480;28;20468;-66
2021/12/29 02:30:46;;;;;;;33.35;13.50;;;;;;;5.25;81.08;99496.34;5048660;28;20037;-66
2021/12/29 02:33:15;;;;;;;29.52;13.50;;;;;;;5.24;80.60;99497.28;5048442;28;20049;-66
2021/12/29 02:35:43;;;;;;;31.25;13.02;;;;;;;5.37;79.66;99500.94;5048461;28;20049;-66
2021/12/29 02:38:22;;;;;;;31.90;13.15;;;;;;;5.07;80.70;99505.06;5044486;28;20402;-66
2021/12/29 02:40:50;;;;;;;28.13;13.35;;;;;;;5.01;80.41;99509.72;5040580;28;20048;-66
2021/12/29 02:43:20;;;;;;;30.67;13.65;;;;;;;4.62;82.47;99508.09;5048526;28;20055;-66
2021/12/29 02:45:49;;;;;;;39.80;14.65;;;;;;;4.84;80.97;99511.34;5047916;28;20041;-66
2021/12/29 02:48:16;;;;;;;36.20;14.38;;;;;;;5.11;80.26;99516.13;5047914;28;20053;-66
2021/12/29 02:50:44;;;;;;;31.02;13.27;;;;;;;5.02;79.84;99520.03;5047562;28;20485;-66
2021/12/29 02:53:12;;;;;;;38.47;15.40;;;;;;;4.74;81.24;99524.84;5043130;28;20091;-66
2021/12/29 02:55:38;;;;;;;39.20;16.02;;;;;;;4.61;81.67;99524.59;5047553;28;20057;-66
2021/12/29 02:58:04;;;;;;;32.00;15.15;;;;;;;4.71;81.14;99520.66;5048419;28;20049;-66
2021/12/29 03:00:31;;;;;;;39.40;14.90;;;;;;;4.94;79.96;99521.31;5047650;28;20045;-66
2021/12/29 03:02:57;;;;;;;49.10;16.02;;;;;;;4.58;80.71;99537.69;5047379;28;20040;-65
2021/12/29 03:05:26;;;;;;;36.22;15.05;;;;;;;4.72;80.24;99535.31;5048320;28;20414;-65
2021/12/29 03:07:55;;;;;;;38.03;13.25;;;;;;;4.78;79.16;99541.97;5047422;28;20041;-65
2021/12/29 03:10:21;;;;;;;43.25;14.48;;;;;;;4.77;79.51;99540.28;5044777;28;20464;-65
2021/12/29 03:12:47;;;;;;;38.58;16.30;;;;;;;4.58;80.32;99529.91;5047061;28;20072;-65
2021/12/29 03:15:14;;;;;;;42.95;16.10;;;;;;;4.41;81.42;99537.63;5048141;28;20138;-65
2021/12/29 03:17:40;;;;;;;44.55;15.60;;;;;;;4.64;80.85;99534.00;5046191;28;20133;-65
2021/12/29 03:20:08;;;;;;;43.60;16.30;;;;;;;4.70;81.25;99541.47;5049936;28;20072;-65
2021/12/29 03:22:34;;;;;;;37.85;15.93;;;;;;;4.88;81.17;99546.66;5052231;28;20477;-65
2021/12/29 03:25:02;;;;;;;42.97;14.52;;;;;;;4.88;81.06;99549.25;5051631;28;20049;-66
2021/12/29 03:27:28;;;;;;;45.92;16.70;;;;;;;4.86;81.04;99551.09;5051786;28;20074;-66
2021/12/29 03:29:54;;;;;;;37.50;15.13;;;;;;;4.85;81.81;99569.34;5051380;28;20571;-66
2021/12/29 03:32:36;;;;;;;40.75;17.52;;;;;;;4.51;83.25;99569.22;5051465;28;20122;-66
2021/12/29 03:35:03;;;;;;;33.90;16.33;;;;;;;4.52;83.72;99574.34;5052021;28;20041;-66
2021/12/29 03:37:29;;;;;;;38.80;15.80;;;;;;;4.76;83.11;99574.97;5051102;28;20087;-66
2021/12/29 03:39:55;;;;;;;40.13;15.40;;;;;;;4.56;84.00;99582.81;5049373;28;20164;-66
2021/12/29 03:42:23;;;;;;;42.50;16.77;;;;;;;4.56;84.35;99590.59;5050451;28;20095;-66
2021/12/29 03:44:49;;;;;;;41.33;15.60;;;;;;;4.47;85.42;99578.91;5050641;28;20110;-66
2021/12/29 03:47:16;;;;;;;41.67;16.02;;;;;;;4.55;85.79;99586.31;5049518;28;20076;-66
2021/12/29 03:49:42;;;;;;;41.28;16.25;;;;;;;4.66;85.68;99578.88;5051413;28;20076;-66
2021/12/29 03:52:08;;;;;;;39.05;14.43;;;;;;;4.91;84.67;99588.06;5048891;28;20036;-66
2021/12/29 03:54:35;;;;;;;38.45;15.70;;;;;;;4.55;86.12;99576.78;5051580;28;20099;-65
2021/12/29 03:57:02;;;;;;;35.65;14.95;;;;;;;4.93;85.39;99598.41;5048589;28;20045;-65
2021/12/29 03:59:30;;;;;;;38.40;14.15;;;;;;;5.38;83.10;99600.56;5051191;28;20056;-65
2021/12/29 04:01:57;;;;;;;43.20;15.10;;;;;;;4.92;85.66;99604.50;5050394;28;22384;-66
2021/12/29 04:04:23;;;;;;;35.65;14.77;;;;;;;4.71;86.86;99597.69;5050262;28;20069;-66
2021/12/29 04:06:50;;;;;;;38.60;15.15;;;;;;;4.49;87.32;99595.25;5050327;28;20444;-66
2021/12/29 04:09:16;;;;;;;44.28;15.30;;;;;;;4.26;88.59;99610.97;5051099;28;20053;-66
2021/12/29 04:11:43;;;;;;;40.25;14.40;;;;;;;4.24;89.43;99612.81;5050375;28;20045;-66
2021/12/29 04:14:09;;;;;;;38.38;14.82;;;;;;;4.49;87.95;99616.00;5051976;28;20106;-66
2021/12/29 04:16:40;;;;;;;36.33;14.10;;;;;;;4.87;86.79;99620.31;5049916;28;20049;-66
2021/12/29 04:19:14;;;;;;;;;;;;;;;4.99;86.38;99623.25;5050369;28;20456;-66
2021/12/29 04:21:42;;;;;;;32.50;14.23;;;;;;;4.63;87.95;99630.94;5047414;28;19924;-66
2021/12/29 04:24:09;;;;;;;33.45;14.55;;;;;;;4.71;87.50;99628.88;5047717;28;20556;-66
2021/12/29 04:26:37;;;;;;;37.80;14.18;;;;;;;4.61;88.20;99636.22;5047889;28;20072;-66
2021/12/29 04:29:04;;;;;;;41.15;14.40;;;;;;;5.04;86.24;99629.06;5048699;28;20512;-66
2021/12/29 04:31:31;;;;;;;28.90;12.32;;;;;;;5.19;85.51;99636.13;5045568;28;20064;-66
2021/12/29 04:33:58;;;;;;;37.00;13.25;;;;;;;5.21;84.75;99626.53;5046388;28;20080;-66
2021/12/29 04:36:25;;;;;;;34.42;13.43;;;;;;;5.54;83.83;99637.91;5045191;28;20574;-66
2021/12/29 04:38:51;;;;;;;30.40;12.70;;;;;;;5.87;82.33;99627.63;5041396;28;20052;-66
2021/12/29 04:41:17;;;;;;;26.52;12.27;;;;;;;5.99;81.17;99621.78;5047333;28;20094;-66
2021/12/29 04:43:44;;;;;;;37.13;13.35;;;;;;;5.97;81.04;99626.25;5040176;28;20134;-66
2021/12/29 04:46:14;;;;;;;39.67;13.18;;;;;;;5.72;81.90;99638.78;5047373;28;20122;-66
2021/12/29 04:48:47;;;;;;;36.10;14.18;;;;;;;5.81;81.92;99644.34;5047597;28;20420;-66
2021/12/29 04:51:22;;;;;;;37.65;13.18;;;;;;;5.87;81.79;99646.66;5047020;28;20055;-66
2021/12/29 04:53:48;;;;;;;30.15;11.73;;;;;;;6.23;80.85;99663.97;5047040;28;20045;-66
2021/12/29 04:56:15;;;;;;;46.40;13.70;;;;;;;6.08;80.96;99656.94;5047666;28;20122;-66
2021/12/29 04:58:43;;;;;;;42.38;15.07;;;;;;;6.22;80.92;99657.06;5045924;28;20048;-66
2021/12/29 05:01:09;;;;;;;46.92;13.48;;;;;;;6.18;81.12;99656.38;5046788;28;20071;-66
2021/12/29 05:03:36;;;;;;;40.20;14.63;;;;;;;6.27;80.88;99666.34;5047549;28;20409;-66
2021/12/29 05:08:46;;;;;;;34.00;12.95;;;;;;;6.39;80.70;99669.22;5047331;28;20059;-66
2021/12/29 05:11:15;;;;;;;33.20;12.80;;;;;;;6.13;81.50;99676.63;5045236;28;20620;-66
2021/12/29 05:13:43;;;;;;;33.95;12.75;;;;;;;6.26;81.47;99675.06;5043177;28;20501;-66
2021/12/29 05:16:09;;;;;;;32.40;12.68;;;;;;;5.55;84.32;99677.72;5046015;28;20049;-66
2021/12/29 05:18:37;;;;;;;43.78;14.25;;;;;;;5.62;84.30;99679.13;5045171;28;20049;-66
2021/12/29 05:21:06;;;;;;;41.03;12.50;;;;;;;5.88;82.92;99679.56;5046372;28;20056;-66
2021/12/29 05:23:33;;;;;;;40.55;12.63;;;;;;;5.74;82.82;99689.78;5045277;28;20037;-66
2021/12/29 05:26:01;;;;;;;30.27;12.80;;;;;;;5.75;82.99;99694.06;5046354;28;20098;-66
2021/12/29 05:28:27;;;;;;;38.65;13.50;;;;;;;5.86;82.40;99689.22;5045907;28;20072;-66
2021/12/29 05:30:54;;;;;;;35.63;13.73;;;;;;;5.57;83.57;99694.13;5046130;28;20048;-66
2021/12/29 05:33:21;;;;;;;34.55;13.27;;;;;;;5.39;84.11;99701.84;5045585;28;20502;-66
2021/12/29 05:35:48;;;;;;;40.72;15.85;;;;;;;5.37;83.88;99713.25;5042326;28;20460;-66
2021/12/29 05:38:14;;;;;;;45.90;15.07;;;;;;;5.36;84.49;99714.16;5042313;28;20116;-66
2021/12/29 05:40:40;;;;;;;41.25;15.10;;;;;;;5.34;84.40;99713.41;5046100;28;20073;-66
2021/12/29 05:43:08;;;;;;;38.90;15.80;;;;;;;5.23;84.07;99713.91;5046842;28;20071;-66
2021/12/29 05:45:34;;;;;;;34.22;14.57;;;;;;;5.61;82.89;99719.91;5047476;28;20072;-66
2021/12/29 05:48:01;;;;;;;37.85;15.00;;;;;;;5.55;83.31;99716.72;5045559;28;20079;-66
2021/12/29 05:50:29;;;;;;;34.70;15.52;;;;;;;5.36;83.19;99720.19;5044878;28;20055;-66
2021/12/29 05:52:56;;;;;;;46.35;17.17;;;;;;;5.33;83.75;99729.91;5047018;28;20068;-66
2021/12/29 05:55:23;;;;;;;41.88;17.05;;;;;;;5.18;83.76;99722.81;5045089;28;20094;-66
2021/12/29 05:57:49;;;;;;;52.53;17.75;;;;;;;4.86;85.50;99743.28;5045310;28;20417;-66
2021/12/29 06:00:20;;;;;;;49.00;20.42;;;;;;;4.47;86.82;99739.00;5046041;28;20479;-66
2021/12/29 06:02:47;;;;;;;;;;;;;;;4.78;86.15;99747.97;5038998;28;20068;-66
2021/12/29 06:05:16;;;;;;;45.60;16.20;;;;;;;4.91;85.54;99759.50;5043990;28;19960;-66
2021/12/29 06:07:42;;;;;;;47.03;18.50;;;;;;;5.17;84.30;99767.91;5042529;28;20094;-66
2021/12/29 06:10:10;;;;;;;45.83;18.23;;;;;;;5.10;83.96;99763.91;5045687;28;20064;-66
2021/12/29 06:12:38;;;;;;;55.67;18.42;;;;;;;4.95;85.08;99760.25;5046297;28;20098;-66
2021/12/29 06:15:06;;;;;;;47.33;17.38;;;;;;;5.14;84.03;99773.22;5046957;28;20045;-66
2021/12/29 06:17:34;;;;;;;51.70;18.55;;;;;;;5.12;83.85;99767.25;5044793;28;20463;-66
2021/12/29 06:20:00;;;;;;;42.65;17.30;;;;;;;5.09;83.72;99777.81;5045096;28;20045;-66
2021/12/29 06:22:27;;;;;;;43.47;17.25;;;;;;;5.15;83.53;99780.97;5045504;28;20072;-66
2021/12/29 06:24:53;;;;;;;49.75;17.17;;;;;;;5.08;83.61;99792.53;5045987;28;20049;-66
2021/12/29 06:27:21;;;;;;;44.05;17.45;;;;;;;4.66;85.01;99792.63;5044517;28;20603;-66
2021/12/29 06:29:48;;;;;;;45.25;18.17;;;;;;;4.41;86.73;99787.66;5046136;28;20122;-66
2021/12/29 06:32:15;;;;;;;53.05;18.70;;;;;;;4.71;85.96;99787.25;5044066;28;20524;-65
2021/12/29 06:34:43;;;;;;;50.50;18.63;;;;;;;4.69;85.46;99787.31;5045107;28;20065;-65
2021/12/29 06:37:12;;;;;;;54.42;19.25;;;;;;;4.67;85.47;99789.16;5038051;28;20464;-65
2021/12/29 06:39:40;;;;;;;47.42;19.20;;;;;;;4.74;85.14;99793.16;5046400;28;20075;-65
2021/12/29 06:42:07;;;;;;;44.95;20.20;;;;;;;4.57;85.89;99803.44;5045381;28;20065;-65
2021/12/29 06:44:34;;;;;;;58.97;23.35;;;;;;;4.24;87.53;99816.06;5045792;28;20489;-65
2021/12/29 06:47:00;;;;;;;50.10;19.50;;;;;;;4.48;87.31;99813.34;5046103;28;20053;-65
2021/12/29 06:49:26;;;;;;;53.30;18.98;;;;;;;4.26;87.62;99819.41;5041390;28;20072;-65
2021/12/29 06:51:54;;;;;;;53.70;20.25;;;;;;;3.98;89.00;99823.19;5041014;28;20106;-65
2021/12/29 06:54:20;;;;;;;73.85;20.05;;;;;;;4.29;87.96;99828.81;5045200;28;20125;-65
2021/12/29 06:56:47;;;;;;;47.17;19.20;;;;;;;4.14;88.09;99829.47;5049632;28;20037;-65
2021/12/29 06:59:13;;;;;;;50.40;18.70;;;;;;;4.13;88.67;99832.94;5049870;28;20534;-65
2021/12/29 07:01:40;;;;;;;50.67;19.67;;;;;;;4.04;88.87;99833.28;5049919;28;20517;-66
2021/12/29 07:04:06;;;;;;;57.20;20.85;;;;;;;4.04;89.08;99846.28;5049860;28;20072;-66
2021/12/29 07:06:33;;;;;;;56.65;20.15;;;;;;;4.13;89.41;99848.53;5030208;28;20508;-66
2021/12/29 07:09:00;;;;;;;58.38;21.50;;;;;;;4.34;88.19;99847.66;5043321;28;20044;-66
2021/12/29 07:11:27;;;;;;;49.28;19.60;;;;;;;4.35;88.60;99849.34;5049579;28;20497;-66
2021/12/29 07:13:53;;;;;;;49.70;21.42;;;;;;;4.39;88.08;99856.97;5050004;28;20447;-66
2021/12/29 07:16:19;;;;;;;49.63;17.85;;;;;;;4.34;88.12;99860.63;5051977;28;20053;-66
2021/12/29 07:18:48;;;;;;;59.72;20.05;;;;;;;4.51;87.95;99860.78;5044790;28;20073;-66
2021/12/29 07:21:14;;;;;;;55.47;19.13;;;;;;;4.39;88.44;99867.34;5050581;28;20102;-66
2021/12/29 07:23:41;;;;;;;58.03;20.73;;;;;;;4.78;87.14;99867.44;5050933;28;20049;-66
2021/12/29 07:26:09;;;;;;;45.60;18.88;;;;;;;5.00;85.77;99866.53;5051214;28;20045;-66
2021/12/29 07:28:35;;;;;;;45.47;17.25;;;;;;;4.74;85.55;99878.84;5039563;28;20065;-66
2021/12/29 07:31:02;;;;;;;45.00;19.35;;;;;;;4.89;85.80;99878.22;5047058;28;20049;-66
2021/12/29 07:33:28;;;;;;;49.17;18.00;;;;;;;4.98;85.47;99876.16;5051290;28;20098;-66
2021/12/29 07:35:54;;;;;;;49.83;17.73;;;;;;;5.07;85.07;99879.19;5051840;28;20079;-66
2021/12/29 07:38:21;;;;;;;44.25;18.55;;;;;;;4.86;85.88;99893.09;5046214;28;20068;-65
2021/12/29 07:40:47;;;;;;;46.53;17.98;;;;;;;5.10;85.00;99893.81;5051636;28;20061;-65
2021/12/29 07:43:15;;;;;;;50.20;19.02;;;;;;;4.83;86.12;99895.81;5051939;28;20095;-67
2021/12/29 07:45:42;;;;;;;52.22;19.38;;;;;;;4.99;85.58;99911.63;5051763;28;20037;-66
2021/12/29 07:48:09;;;;;;;53.25;20.90;;;;;;;4.75;86.40;99906.53;5048881;28;20045;-65
2021/12/29 07:50:37;;;;;;;61.53;22.83;;;;;;;4.95;85.91;99912.66;5051095;28;20048;-65
2021/12/29 07:53:03;;;;;;;69.05;19.02;;;;;;;4.74;86.65;99910.03;5050369;28;20303;-65
2021/12/29 07:55:30;;;;;;;49.53;19.83;;;;;;;4.57;87.33;99917.66;5051521;28;20068;-65
2021/12/29 07:57:56;;;;;;;60.58;20.02;;;;;;;4.82;87.11;99923.53;5051292;28;20086;-65
2021/12/29 08:00:24;;;;;;;52.80;20.48;;;;;;;4.74;87.24;99930.78;5051060;28;20065;-65
2021/12/29 08:02:51;;;;;;;43.50;18.88;;;;;;;5.07;85.47;99940.69;5050882;28;20163;-65
2021/12/29 08:05:18;;;;;;;52.40;21.65;;;;;;;4.99;85.42;99953.19;5050625;28;20099;-65
2021/12/29 08:07:44;;;;;;;56.88;20.23;;;;;;;4.88;86.44;99949.25;5037514;28;20064;-65
2021/12/29 08:10:10;;;;;;;48.45;18.27;;;;;;;4.71;86.78;99951.72;5051226;28;20069;-65
2021/12/29 08:12:37;;;;;;;49.60;19.65;;;;;;;4.90;86.03;99963.03;5051720;28;20068;-66
2021/12/29 08:15:04;;;;;;;54.08;20.02;;;;;;;5.04;85.71;99964.22;5050510;28;20098;-66
2021/12/29 08:17:32;;;;;;;51.05;20.77;;;;;;;5.28;85.30;99963.22;5050450;28;20154;-66
2021/12/29 08:19:59;;;;;;;56.35;19.35;;;;;;;5.43;83.80;99957.34;5050964;28;20045;-66
2021/12/29 08:22:25;;;;;;;54.63;18.80;;;;;;;5.85;82.46;99950.25;5050270;28;20072;-66
2021/12/29 08:24:51;;;;;;;64.70;21.52;;;;;;;5.98;81.79;99954.94;5050873;28;20073;-66
2021/12/29 08:27:18;;;;;;;46.85;18.27;;;;;;;5.78;82.70;99964.44;5050830;28;20069;-67
2021/12/29 08:29:44;;;;;;;49.65;18.00;;;;;;;5.78;82.91;99969.66;5049789;28;20072;-66
2021/12/29 08:32:11;;;;;;;63.17;22.48;;;;;;;5.15;85.03;99978.47;5050834;28;20064;-66
2021/12/29 08:34:38;;;;;;;59.42;19.23;;;;;;;5.11;85.43;99981.25;5051195;28;20041;-66
2021/12/29 08:37:05;;;;;;;53.67;19.55;;;;;;;5.16;85.51;99979.31;5050235;28;20485;-66
2021/12/29 08:39:31;;;;;;;60.03;20.02;;;;;;;5.27;84.96;99990.94;5049232;28;20489;-67
2021/12/29 08:41:57;;;;;;;63.38;21.67;;;;;;;5.68;84.26;99985.72;5050615;28;20106;-66
2021/12/29 08:44:24;;;;;;;61.55;22.27;;;;;;;5.52;84.10;99985.53;5050308;28;20466;-66
2021/12/29 08:46:51;;;;;;;71.30;23.58;;;;;;;5.60;84.59;99991.28;5050164;28;20458;-66
2021/12/29 08:49:17;;;;;;;70.35;25.23;;;;;;;5.57;84.96;99991.41;5050197;28;20120;-66
2021/12/29 08:51:46;;;;;;;78.72;26.95;;;;;;;5.78;84.98;99995.66;5049664;28;20100;-65
2021/12/29 08:54:13;;;;;;;81.18;25.85;;;;;;;5.79;85.36;99996.50;5049386;28;20547;-65
2021/12/29 08:56:40;;;;;;;82.65;26.48;;;;;;;5.95;84.69;99997.53;5049494;28;20114;-65
2021/12/29 08:59:06;;;;;;;82.63;25.73;;;;;;;6.18;83.84;100005.16;5047957;28;20122;-66
2021/12/29 09:01:32;;;;;;;85.47;25.13;;;;;;;6.46;83.03;100006.53;5047956;28;20104;-66
2021/12/29 09:03:59;;;;;;;82.45;25.35;;;;;;;6.70;83.13;100003.59;5048124;28;20069;-66
2021/12/29 09:06:25;;;;;;;75.88;24.17;;;;;;;6.67;83.60;100008.97;5047078;28;20078;-66
2021/12/29 09:08:54;;;;;;;93.60;25.40;;;;;;;6.73;84.21;100006.06;5047317;28;20090;-66
2021/12/29 09:11:21;;;;;;;94.60;26.60;;;;;;;6.74;84.34;100015.56;5033316;28;20065;-66
2021/12/29 09:13:47;;;;;;;96.97;25.70;;;;;;;6.85;84.39;100008.09;5046664;28;20056;-66
2021/12/29 09:16:14;;;;;;;104.03;27.20;;;;;;;6.99;84.16;100010.03;5045945;28;20435;-66
2021/12/29 09:18:40;;;;;;;91.35;23.38;;;;;;;7.05;84.48;100014.94;5046675;28;20048;-66
2021/12/29 09:21:12;;;;;;;89.88;26.05;;;;;;;7.03;84.49;100021.97;5045417;28;20069;-65
2021/12/29 09:23:40;;;;;;;94.03;25.25;;;;;;;7.12;84.73;100015.50;5048166;28;20041;-65
2021/12/29 09:26:10;;;;;;;86.80;24.17;;;;;;;7.32;84.06;100028.38;5047346;28;20072;-66
2021/12/29 09:28:36;;;;;;;85.28;25.48;;;;;;;7.32;84.27;100028.38;5040744;28;20122;-66
2021/12/29 09:31:03;;;;;;;103.22;26.00;;;;;;;7.44;83.67;100017.34;5045704;28;20072;-66
2021/12/29 09:33:29;;;;;;;99.85;25.58;;;;;;;7.61;83.43;100013.91;5047353;28;20472;-66
2021/12/29 09:35:57;;;;;;;88.45;25.20;;;;;;;7.78;82.73;100011.25;5046820;28;20049;-67
2021/12/29 09:38:25;;;;;;;92.90;23.52;;;;;;;7.78;83.18;100012.09;5046606;28;20128;-67
2021/12/29 09:40:51;;;;;;;112.38;25.10;;;;;;;7.93;83.31;100020.06;5045580;28;20102;-67
2021/12/29 09:43:20;;;;;;;85.72;22.33;;;;;;;7.86;83.41;100019.53;5046594;28;20150;-67
2021/12/29 09:45:48;;;;;;;82.43;21.75;;;;;;;8.38;81.56;100022.03;5047187;28;20045;-67
2021/12/29 09:48:15;;;;;;;90.68;22.30;;;;;;;8.44;81.51;100019.06;5045816;28;20083;-67
2021/12/29 09:50:42;;;;;;;96.07;22.52;;;;;;;8.47;81.97;100019.75;5044728;28;20126;-66
2021/12/29 09:53:09;;;;;;;94.05;24.20;;;;;;;8.43;81.72;100010.38;5047055;28;20500;-66
2021/12/29 09:55:36;;;;;;;82.68;20.67;;;;;;;8.43;82.60;100017.38;5046935;28;20040;-66
2021/12/29 09:58:04;;;;;;;87.05;21.13;;;;;;;8.53;82.19;100024.66;5046650;28;20111;-66
2021/12/29 10:00:34;;;;;;;73.80;20.40;;;;;;;8.56;82.59;100021.03;5046865;28;20052;-67
2021/12/29 10:03:03;;;;;;;69.25;19.63;;;;;;;8.70;82.06;100024.56;5046590;28;20189;-67
2021/12/29 10:05:30;;;;;;;70.60;20.02;;;;;;;9.10;81.15;100022.31;5047570;28;20496;-67
2021/12/29 10:07:59;;;;;;;54.88;16.83;;;;;;;8.93;81.70;100012.84;5045304;28;20126;-67
2021/12/29 10:10:26;;;;;;;49.20;16.63;;;;;;;9.04;81.96;100020.06;5045587;28;20131;-67
2021/12/29 10:12:52;;;;;;;45.85;14.93;;;;;;;8.99;81.66;100019.47;5046495;28;20449;-67
2021/12/29 10:15:19;;;;;;;42.47;14.30;;;;;;;9.16;81.38;100019.38;5046831;28;20417;-67
2021/12/29 10:17:47;;;;;;;36.13;12.88;;;;;;;9.32;80.04;100016.69;5044360;28;20080;-67
2021/12/29 10:20:17;;;;;;;26.13;10.13;;;;;;;9.24;80.19;100020.59;5045991;28;20489;-67
2021/12/29 10:22:54;;;;;;;30.00;11.57;;;;;;;9.33;79.95;100029.72;5038538;28;20094;-67
2021/12/29 10:25:24;;;;;;;23.77;10.48;;;;;;;9.22;79.77;100029.47;5041550;28;20126;-66
2021/12/29 10:27:51;;;;;;;21.60;10.52;;;;;;;9.34;80.24;100034.03;5046249;28;20543;-66
2021/12/29 10:30:20;;;;;;;20.27;9.27;;;;;;;9.27;79.93;100041.34;5045993;28;20048;-67
2021/12/29 10:32:49;;;;;;;20.48;9.52;;;;;;;9.44;79.13;100042.16;5045786;28;20072;-66
2021/12/29 10:35:24;;;;;;;18.92;9.75;;;;;;;9.02;80.45;100045.44;5045475;28;20508;-66
2021/12/29 10:37:52;;;;;;;18.65;9.35;;;;;;;8.92;80.60;100049.50;5041965;28;20073;-66
2021/12/29 10:40:30;;;;;;;19.40;8.32;;;;;;;8.87;81.42;100059.41;5039375;28;20075;-67
2021/12/29 10:42:59;;;;;;;14.75;7.28;;;;;;;8.86;80.97;100049.88;5046008;28;20074;-67
2021/12/29 10:45:30;;;;;;;14.60;7.60;;;;;;;9.03;81.08;100053.22;5045730;28;20080;-67
2021/12/29 10:47:59;;;;;;;15.32;6.97;;;;;;;9.10;81.00;100053.72;5046690;28;20069;-67
2021/12/29 10:50:27;;;;;;;13.30;6.53;;;;;;;9.05;80.49;100047.91;5045905;28;20045;-67
2021/12/29 10:52:55;;;;;;;15.63;7.00;;;;;;;9.28;80.85;100052.66;5046675;28;20049;-67
2021/12/29 10:55:25;;;;;;;9.82;5.68;;;;;;;9.28;80.23;100044.81;5046566;28;20433;-66
2021/12/29 10:58:02;;;;;;;11.00;6.43;;;;;;;9.47;80.42;100055.06;5044261;28;20045;-67
2021/12/29 11:00:29;;;;;;;13.20;6.60;;;;;;;9.40;80.09;100064.19;5043967;28;20069;-67
2021/12/29 11:02:57;;;;;;;10.18;5.72;;;;;;;9.31;80.37;100065.59;5044777;28;20057;-67
2021/12/29 11:05:36;;;;;;;13.55;5.90;;;;;;;9.29;80.56;100067.44;5046435;28;20053;-66
2021/12/29 11:08:06;;;;;;;9.32;5.40;;;;;;;9.50;79.38;100078.44;5045188;28;20173;-66
2021/12/29 11:10:33;;;;;;;8.15;4.65;;;;;;;9.41;79.60;100090.28;5041691;28;20891;-66
2021/12/29 11:12:59;;;;;;;9.45;5.43;;;;;;;9.45;79.69;100094.41;5045486;28;20072;-66
2021/12/29 11:15:29;;;;;;;9.40;5.65;;;;;;;9.41;79.67;100103.38;5046527;28;20076;-66
2021/12/29 11:18:00;;;;;;;10.65;5.15;;;;;;;9.65;79.73;100098.50;5048027;28;20118;-66
2021/12/29 11:20:31;;;;;;;7.05;4.68;;;;;;;9.67;78.96;100091.41;5034240;28;20083;-66
2021/12/29 11:23:05;;;;;;;8.35;4.53;;;;;;;9.74;79.27;100096.19;5045326;28;20041;-66
2021/12/29 11:25:33;;;;;;;11.30;5.20;;;;;;;9.95;78.48;100101.94;5047971;28;20052;-66
2021/12/29 11:28:00;;;;;;;8.13;4.95;;;;;;;10.00;77.28;100104.28;5046571;28;20049;-66